createdAt,value
2023-02-14T00:01:18.509Z,0.9
2023-02-14T00:11:16.809Z,1.1
2023-02-14T00:21:17.883Z,0.7
2023-02-14T00:31:19.065Z,0.9
2023-02-14T00:41:20.052Z,1.2
2023-02-14T00:51:21.211Z,1.4
2023-02-14T01:01:22.373Z,1
2023-02-14T01:11:23.014Z,1.2
2023-02-14T01:21:24.050Z,1.3
2023-02-14T01:31:25.216Z,0.8
2023-02-14T01:41:25.975Z,1.3
2023-02-14T01:51:26.877Z,1
2023-02-14T02:01:28.094Z,1.2
2023-02-14T02:11:28.803Z,0.9
2023-02-14T02:21:29.623Z,1.6
2023-02-14T02:31:30.490Z,1.7
2023-02-14T02:41:31.339Z,1.5
2023-02-14T02:51:32.185Z,1.4
2023-02-14T03:01:33.450Z,1.3
2023-02-14T03:11:33.993Z,2
2023-02-14T03:21:34.764Z,2
2023-02-14T03:31:35.857Z,1.5
2023-02-14T03:41:36.370Z,1.4
2023-02-14T03:51:37.588Z,1.4
2023-02-14T04:01:38.456Z,2.7
2023-02-14T04:11:38.899Z,1.4
2023-02-14T04:21:39.899Z,1.3
2023-02-14T04:31:40.680Z,1.1
2023-02-14T04:41:41.334Z,1
2023-02-14T04:51:42.221Z,1.3
2023-02-14T05:01:43.064Z,1.2
2023-02-14T05:11:43.866Z,1.3
2023-02-14T05:21:44.581Z,1.4
2023-02-14T05:31:45.434Z,1.4
2023-02-14T05:41:46.199Z,1.3
2023-02-14T05:51:46.929Z,1.1
2023-02-14T06:01:47.807Z,1
2023-02-14T06:11:48.668Z,0.9
2023-02-14T06:21:49.307Z,1.7
2023-02-14T06:31:50.242Z,1.4
2023-02-14T06:41:50.849Z,1.3
2023-02-14T06:51:51.500Z,1.2
2023-02-14T07:01:52.364Z,1.3
2023-02-14T07:11:52.808Z,1.3
2023-02-14T07:21:53.646Z,1.2
2023-02-14T07:31:54.431Z,1.3
2023-02-14T07:41:54.854Z,1.3
2023-02-14T07:51:55.383Z,1.3
2023-02-14T08:01:56.014Z,1.5
2023-02-14T08:11:56.504Z,1.3
2023-02-14T08:21:56.982Z,1.3
2023-02-14T08:31:57.712Z,1.4
2023-02-14T08:41:58.104Z,1.5
2023-02-14T08:51:58.654Z,1.8
2023-02-14T09:01:59.217Z,1.5
2023-02-14T09:11:59.671Z,1.8
2023-02-14T09:22:00.169Z,1.6
2023-02-14T09:32:00.743Z,1.7
2023-02-14T09:42:01.215Z,1.7
2023-02-14T09:52:01.479Z,1.7
2023-02-14T10:02:02.098Z,1.3
2023-02-14T10:12:02.557Z,1.3
2023-02-14T10:22:03.105Z,1.7
2023-02-14T10:32:03.564Z,2.3
2023-02-14T10:42:04.036Z,1.5
2023-02-14T10:52:04.572Z,1.6
2023-02-14T11:02:04.922Z,1.5
2023-02-14T11:12:05.431Z,1.7
2023-02-14T11:22:05.797Z,1.8
2023-02-14T11:32:06.233Z,1.6
2023-02-14T11:42:06.601Z,1.7
2023-02-14T11:52:10.127Z,2
2023-02-14T12:02:07.683Z,2.1
2023-02-14T12:12:08.405Z,2.5
2023-02-14T12:22:08.402Z,2
2023-02-14T12:32:08.986Z,2.1
2023-02-14T12:42:09.319Z,1.9
2023-02-14T12:52:11.431Z,2
2023-02-14T13:02:10.173Z,2.4
2023-02-14T13:12:10.721Z,1.9
2023-02-14T13:22:11.160Z,2
2023-02-14T13:32:11.654Z,2.1
2023-02-14T13:42:12.035Z,2
2023-02-14T13:52:12.949Z,2.4
2023-02-14T14:02:13.394Z,2.3
2023-02-14T14:05:48.064Z,2.3
2023-02-14T14:08:33.132Z,2.3
2023-02-14T14:12:14.099Z,1.6
2023-02-14T14:22:17.410Z,1.7
2023-02-14T14:32:23.300Z,1.8
2023-02-14T14:42:17.991Z,2.1
2023-02-14T14:52:18.881Z,1.8
2023-02-14T15:02:18.666Z,1.9
2023-02-14T15:12:20.446Z,1.9
2023-02-14T15:22:23.775Z,1.7
2023-02-14T15:32:22.117Z,1.5
2023-02-14T15:42:23.289Z,1.7
2023-02-14T15:52:24.451Z,1.7
2023-02-14T16:02:28.154Z,1.8
2023-02-14T16:12:26.885Z,1.5
2023-02-14T16:22:28.062Z,2.1
2023-02-14T16:32:29.369Z,2.4
2023-02-14T16:42:30.567Z,2.6
2023-02-14T16:52:31.889Z,2.3
2023-02-14T17:02:35.223Z,2.4
2023-02-14T17:12:34.455Z,2
2023-02-14T17:22:35.881Z,2
2023-02-14T17:32:39.506Z,2
2023-02-14T17:42:38.520Z,2.1
2023-02-14T17:52:39.824Z,2.3
2023-02-14T18:02:06.168Z,2.3
2023-02-14T18:02:42.425Z,2.4
2023-02-14T18:12:43.036Z,2
2023-02-14T18:22:43.996Z,2.4
2023-02-14T18:32:45.310Z,1.9
2023-02-14T18:42:46.861Z,2.3
2023-02-14T18:52:48.295Z,2
2023-02-14T19:02:50.009Z,2.5
2023-02-14T19:12:52.486Z,2.3
2023-02-14T19:22:52.693Z,2.2
2023-02-14T19:32:54.181Z,1.4
2023-02-14T19:42:55.549Z,1
2023-02-14T19:52:58.416Z,1.2
2023-02-14T20:02:58.720Z,1
2023-02-14T20:13:01.228Z,1.2
2023-02-14T20:23:01.565Z,1.2
2023-02-14T20:33:02.809Z,1.2
2023-02-14T20:43:04.155Z,1.2
2023-02-14T20:53:05.654Z,1.3
2023-02-14T21:03:06.915Z,1.2
2023-02-14T21:13:09.310Z,1
2023-02-14T21:23:09.541Z,1.3
2023-02-14T21:33:10.877Z,2.9
2023-02-14T21:43:21.225Z,2.9
2023-02-14T21:53:14.735Z,2
2023-02-14T22:03:15.931Z,2.2
2023-02-14T22:13:16.824Z,6.8
2023-02-14T22:23:17.196Z,8
2023-02-14T22:33:18.363Z,3.9
2023-02-14T22:43:19.470Z,1.9
2023-02-14T22:53:21.914Z,1.3
2023-02-14T23:03:21.669Z,1.1
2023-02-14T23:13:22.840Z,0.9
2023-02-14T23:23:23.873Z,1.1
2023-02-14T23:33:24.782Z,0.8
2023-02-14T23:43:25.886Z,1.5
2023-02-14T23:53:26.758Z,1.4
